Hlavní strana
METAR-TAF:

METAR-TAF

Letiště :

Letiště Kodaň

Kodaň, Dánsko

zeměpisná šířka: 55-37N, zeměpisná délka: 012-39E, výška: 5 m

Aktuální stav počasí

Zpráva byla vytvořena před 36 minutami, v 05:20 UTC
Jižní vítr 3 kt
Teplota 2°C
Vlhkost vzduchu 93%
Tlak 995 hPa
Viditelnost 10 km a více

METAR: EKCH 240520Z AUTO 19003KT 9999 OVC044/// 02/01 Q0995 NOSIG

Čas: 06:56 (05:56 UTC)

Předpověď počasí

Zpráva byla vytvořena před 45 minutami, v 05:11 UTC
Předpověď platná od 24 v 06 UTC do 25 v 06 UTC
Jihojihozápadní vítr 6 kt
Viditelnost 10 km a více
Oblačno až skoro zataženo ve výšce 2500 ft
Dočasný
od 24 v 06 UTC do 24 v 10 UTC
Viditelnost: 4000 m
Oblačno až skoro zataženo ve výšce 600 ft
kouřmo
Dočasný
od 24 v 10 UTC do 24 v 21 UTC
Oblačno až skoro zataženo ve výšce 800 ft
Dočasný
od 24 v 21 UTC do 25 v 06 UTC
Viditelnost: 4000 m
Oblačno až skoro zataženo ve výšce 300 ft
kouřmo

TAF: EKCH 240511Z 2406/2506 20006KT 9999 BKN025 TEMPO 2406/2410 4000 BR BKN006 TEMPO 2410/2421 BKN008 TEMPO 2421/2506 4000 BR BKN003

Stav a předpovědi počasí z více než 4 000 letišť (zprávy METAR a TAF).

Červené a žluté tečky na mapě představují dostupné meteorologické stanice.

Když kurzor umístíte na tečku, zobrazí se název stanice.

Pak kliknutím zobrazíte stav a předpověď počasí.

Chcete-li změnit mapu, kliknutím na zelené tlačítko se znaménkem +mapu přiblížíte, kliknutím na zelené tlačítko se znaménkem – mapu oddálíte a kliknutím na zelené šipky přejdete na sousední mapy.


METAR-TAF: